Аэропорт: Борисполь. Киев

ICAO: UKBB

METAR:
2020-10-19 23:00:00
UKBB 192300Z 24003MPS CAVOK 04/02 Q1023 R18L/CLRD// NOSIG
METAR:
2020-10-19 17:00:00
TAF UKBB 191700Z 1918/2018 26003G08MPS 9999 BKN020 TX10/2012Z TNM00/2004Z TEMPO 1921/2005 2000 BR SCT005 BECMG 2006/2008 28006G12MPS